Time;durP1;ratioP1;P1;durP2;ratioP2;P2;SDS_P1;SDS_P2;PMS_P1;PMS_P2;Temp;Humidity;BMP_temperature;BMP_pressure;BME280_temperature;BME280_humidity;BME280_pressure;Samples;Min_cycle;Max_cycle;Signal;HPM_P1;HPM_P2
2023/11/13 00:01:20;;;;;;;2.45;1.20;;;12.00;1.00;;;;;;4975640;28;20388;-83
2023/11/13 00:03:45;;;;;;;2.00;0.70;;;12.10;1.00;;;;;;4979291;28;20399;-79
2023/11/13 00:06:13;;;;;;;3.00;0.63;;;12.20;1.00;;;;;;4990592;28;20471;-83
2023/11/13 00:08:39;;;;;;;2.95;0.90;;;12.20;1.00;;;;;;4989744;28;20416;-82
2023/11/13 00:11:04;;;;;;;3.28;0.80;;;12.30;1.00;;;;;;4982259;28;20503;-81
2023/11/13 00:13:30;;;;;;;2.10;1.00;;;12.30;1.00;;;;;;4973942;28;20483;-81
2023/11/13 00:15:56;;;;;;;4.27;1.40;;;12.50;1.00;;;;;;4975551;28;20560;-80
2023/11/13 00:18:21;;;;;;;2.63;1.20;;;12.40;1.00;;;;;;4975587;28;20385;-81
2023/11/13 00:20:47;;;;;;;4.10;1.00;;;12.40;1.00;;;;;;4975290;28;20411;-82
2023/11/13 00:23:12;;;;;;;5.63;1.25;;;12.40;1.00;;;;;;4975577;28;20399;-81
2023/11/13 00:25:38;;;;;;;4.75;1.50;;;12.40;1.00;;;;;;4983882;28;20400;-83
2023/11/13 00:28:05;;;;;;;5.07;1.50;;;12.50;1.00;;;;;;4983435;28;20388;-79
2023/11/13 00:30:31;;;;;;;3.90;1.30;;;12.40;1.00;;;;;;4993694;28;20396;-81
2023/11/13 00:32:56;;;;;;;6.95;1.40;;;12.50;1.00;;;;;;4989774;28;20412;-81
2023/11/13 00:35:22;;;;;;;6.00;1.90;;;12.40;1.00;;;;;;4979496;28;20873;-81
2023/11/13 00:37:47;;;;;;;5.90;1.90;;;12.50;1.00;;;;;;4978500;28;20431;-80
2023/11/13 00:40:13;;;;;;;5.18;2.00;;;12.50;1.00;;;;;;4978530;28;20446;-82
2023/11/13 00:42:39;;;;;;;4.88;1.70;;;12.50;1.00;;;;;;4978556;28;20543;-82
2023/11/13 00:45:06;;;;;;;4.20;2.00;;;12.50;1.00;;;;;;4978555;28;20408;-82
2023/11/13 00:47:31;;;;;;;6.50;2.05;;;12.60;1.00;;;;;;4977811;28;20481;-81
2023/11/13 00:49:57;;;;;;;5.33;1.80;;;12.70;1.00;;;;;;4978174;28;20484;-83
2023/11/13 00:52:22;;;;;;;9.07;2.20;;;12.10;1.00;;;;;;4977678;28;20380;-81
2023/11/13 00:54:48;;;;;;;5.27;2.03;;;12.70;1.00;;;;;;4977532;28;20416;-80
2023/11/13 00:57:13;;;;;;;4.93;2.20;;;12.70;1.00;;;;;;4978021;28;20388;-81
2023/11/13 00:59:39;;;;;;;7.60;2.40;;;12.70;1.00;;;;;;4977812;28;20559;-81
2023/11/13 01:02:04;;;;;;;7.60;2.13;;;12.70;1.00;;;;;;4976034;28;20396;-81
2023/11/13 01:04:30;;;;;;;10.37;2.60;;;12.00;1.00;;;;;;4976563;28;20443;-81
2023/11/13 01:06:56;;;;;;;8.63;3.10;;;12.70;1.00;;;;;;4974987;28;20928;-82
2023/11/13 01:09:22;;;;;;;7.50;2.60;;;12.70;1.00;;;;;;4976198;28;20411;-80
2023/11/13 01:11:52;;;;;;;7.00;2.30;;;12.80;1.00;;;;;;4974427;28;20416;-79
2023/11/13 01:14:18;;;;;;;8.60;2.47;;;12.80;1.00;;;;;;4973657;28;20495;-80
2023/11/13 01:16:44;;;;;;;7.65;2.55;;;12.90;1.00;;;;;;4974387;28;20392;-79
2023/11/13 01:19:09;;;;;;;8.23;2.30;;;12.80;1.00;;;;;;4975785;28;20419;-78
2023/11/13 01:21:35;;;;;;;8.27;2.75;;;12.90;1.00;;;;;;4975324;28;20384;-77
2023/11/13 01:24:00;;;;;;;7.93;2.40;;;12.80;1.00;;;;;;4974742;28;20392;-78
2023/11/13 01:26:26;;;;;;;7.80;2.30;;;12.90;1.00;;;;;;4975680;28;20398;-79
2023/11/13 01:28:51;;;;;;;7.85;2.70;;;12.90;1.00;;;;;;4975569;28;20396;-79
2023/11/13 01:31:17;;;;;;;8.43;2.67;;;12.90;1.00;;;;;;4975520;28;20392;-79
2023/11/13 01:33:42;;;;;;;7.77;2.30;;;12.90;1.00;;;;;;4975438;28;20777;-80
2023/11/13 01:36:08;;;;;;;8.83;2.70;;;12.90;1.00;;;;;;4973607;28;20792;-79
2023/11/13 01:38:34;;;;;;;10.50;2.90;;;12.90;1.00;;;;;;4974728;28;20748;-77
2023/11/13 01:41:00;;;;;;;8.45;2.40;;;12.90;1.00;;;;;;4974710;28;20421;-79
2023/11/13 01:43:25;;;;;;;11.27;2.88;;;12.90;1.00;;;;;;4974737;28;20463;-78
2023/11/13 01:45:54;;;;;;;6.82;2.40;;;12.90;1.00;;;;;;4973480;28;20435;-79
2023/11/13 01:48:21;;;;;;;8.35;2.50;;;13.00;1.00;;;;;;4974932;28;20730;-79
2023/11/13 01:50:48;;;;;;;6.57;2.30;;;13.00;1.00;;;;;;4974717;28;20396;-80
2023/11/13 01:53:17;;;;;;;10.13;2.80;;;12.90;1.00;;;;;;4975125;28;20487;-81
2023/11/13 01:55:44;;;;;;;6.07;2.40;;;13.00;1.00;;;;;;4973847;28;20408;-80
2023/11/13 01:58:10;;;;;;;9.93;3.40;;;13.00;1.00;;;;;;4976163;28;20415;-81
2023/11/13 02:00:37;;;;;;;6.45;2.75;;;13.00;1.00;;;;;;4976453;28;20948;-79
2023/11/13 02:03:05;;;;;;;8.98;2.90;;;13.00;1.00;;;;;;4974709;28;20392;-79
2023/11/13 02:05:31;;;;;;;8.10;2.70;;;12.90;1.00;;;;;;4974617;28;20415;-79
2023/11/13 02:07:57;;;;;;;7.07;2.35;;;13.00;1.00;;;;;;4974943;28;20899;-80
2023/11/13 02:10:23;;;;;;;8.82;2.80;;;13.10;1.00;;;;;;4974653;28;20389;-79
2023/11/13 02:12:49;;;;;;;10.23;2.78;;;13.00;1.00;;;;;;5021128;23;20442;-83
2023/11/13 02:15:15;;;;;;;8.80;2.30;;;12.40;1.00;;;;;;5001325;28;20391;-82
2023/11/13 02:18:03;;;;;;;8.55;2.67;;;13.10;1.00;;;;;;5002645;28;20378;-84
2023/11/13 02:20:31;;;;;;;8.57;2.70;;;13.10;1.00;;;;;;5001172;28;20409;-83
2023/11/13 02:22:57;;;;;;;9.95;3.20;;;13.10;1.00;;;;;;4983345;28;20757;-84
2023/11/13 02:25:24;;;;;;;11.70;2.83;;;13.00;1.00;;;;;;4983599;28;20404;-85
2023/11/13 02:27:55;;;;;;;8.68;2.67;;;13.20;1.00;;;;;;4984761;28;20427;-81
2023/11/13 02:30:21;;;;;;;10.10;3.00;;;13.10;1.00;;;;;;4980990;28;20399;-83
2023/11/13 02:32:50;;;;;;;8.77;2.63;;;13.20;1.00;;;;;;4982277;28;20416;-84
2023/11/13 02:35:16;;;;;;;5.25;2.20;;;13.10;1.00;;;;;;4984384;28;20434;-84
2023/11/13 02:37:42;;;;;;;12.10;3.70;;;13.30;1.00;;;;;;4995809;28;20458;-84
2023/11/13 02:40:09;;;;;;;8.00;3.08;;;13.20;1.00;;;;;;5001175;28;20402;-83
2023/11/13 02:42:37;;;;;;;9.45;3.55;;;13.30;1.00;;;;;;5001389;28;20398;-83
2023/11/13 02:45:04;;;;;;;8.98;2.80;;;13.40;1.00;;;;;;4984088;28;20424;-84
2023/11/13 02:47:29;;;;;;;12.48;2.83;;;13.30;1.00;;;;;;4980501;28;20401;-84
2023/11/13 02:49:57;;;;;;;13.25;3.30;;;13.40;1.00;;;;;;4979730;28;20447;-80
2023/11/13 02:52:22;;;;;;;9.32;2.30;;;13.30;1.00;;;;;;4981348;28;20392;-82
2023/11/13 02:54:48;;;;;;;11.05;2.97;;;13.30;1.00;;;;;;4983102;28;20474;-83
2023/11/13 02:57:13;;;;;;;9.50;3.20;;;13.30;1.00;;;;;;4983876;28;20410;-83
2023/11/13 02:59:39;;;;;;;10.87;2.70;;;13.30;1.00;;;;;;4984460;28;20408;-84
2023/11/13 03:02:05;;;;;;;11.30;2.47;;;13.20;1.00;;;;;;4982703;28;20396;-83
2023/11/13 03:04:30;;;;;;;11.97;2.80;;;13.30;1.00;;;;;;5002140;28;20403;-82
2023/11/13 03:06:56;;;;;;;8.67;2.87;;;13.30;1.00;;;;;;5009764;28;20899;-82
2023/11/13 03:09:21;;;;;;;7.88;2.90;;;13.30;1.00;;;;;;5009533;28;20394;-83
2023/11/13 03:11:47;;;;;;;6.67;2.80;;;13.30;1.00;;;;;;5004339;28;20407;-82
2023/11/13 03:14:13;;;;;;;9.20;2.67;;;13.10;1.00;;;;;;4998946;28;20910;-83
2023/11/13 03:16:38;;;;;;;11.60;2.80;;;13.20;1.00;;;;;;5001070;28;20653;-82
2023/11/13 03:19:04;;;;;;;9.07;3.10;;;13.40;1.00;;;;;;5000606;28;20410;-84
2023/11/13 03:21:29;;;;;;;11.60;3.10;;;13.30;1.00;;;;;;5005549;28;20413;-80
2023/11/13 03:23:55;;;;;;;8.13;2.70;;;13.30;1.00;;;;;;5005489;28;20760;-82
2023/11/13 03:26:20;;;;;;;10.43;3.00;;;13.10;1.00;;;;;;5001997;28;20414;-85
2023/11/13 03:28:46;;;;;;;9.77;2.90;;;13.30;1.00;;;;;;4998728;28;20488;-85
2023/11/13 03:31:11;;;;;;;11.40;3.47;;;13.20;1.00;;;;;;5000848;28;20394;-84
2023/11/13 03:33:37;;;;;;;8.53;2.30;;;13.40;1.00;;;;;;4995647;28;20463;-81
2023/11/13 03:36:02;;;;;;;8.97;3.10;;;13.40;1.00;;;;;;4979764;28;20491;-83
2023/11/13 03:38:28;;;;;;;8.30;2.60;;;13.50;1.00;;;;;;4978848;28;20459;-83
2023/11/13 03:40:54;;;;;;;7.95;2.42;;;13.50;1.00;;;;;;4981364;28;20877;-82
2023/11/13 03:43:19;;;;;;;12.10;3.17;;;13.40;1.00;;;;;;4979278;28;20404;-82
2023/11/13 03:45:45;;;;;;;7.40;2.30;;;13.40;1.00;;;;;;4979314;28;20423;-83
2023/11/13 03:48:11;;;;;;;8.67;2.70;;;13.40;1.00;;;;;;4983601;28;20449;-82
2023/11/13 03:50:36;;;;;;;5.87;2.10;;;13.30;1.00;;;;;;4984919;28;20396;-82
2023/11/13 03:53:02;;;;;;;8.85;2.58;;;13.30;1.00;;;;;;4983415;28;20416;-82
2023/11/13 03:55:27;;;;;;;7.70;2.47;;;13.30;1.00;;;;;;4980674;28;20865;-84
2023/11/13 03:57:53;;;;;;;8.60;2.57;;;13.40;1.00;;;;;;4984875;28;20388;-84
2023/11/13 04:00:19;;;;;;;7.50;2.60;;;13.30;1.00;;;;;;4985984;28;20960;-84
2023/11/13 04:02:48;;;;;;;9.98;2.95;;;13.30;1.00;;;;;;4986899;28;20873;-84
2023/11/13 04:05:16;;;;;;;8.90;2.85;;;13.20;1.00;;;;;;4989406;28;20483;-83
2023/11/13 04:07:41;;;;;;;6.73;2.70;;;13.00;1.00;;;;;;4988983;28;20410;-83
2023/11/13 04:10:13;;;;;;;10.60;2.70;;;12.70;1.00;;;;;;4989367;28;20391;-83
2023/11/13 04:12:40;;;;;;;7.85;2.15;;;12.50;1.00;;;;;;4987783;28;20404;-84
2023/11/13 04:15:07;;;;;;;8.20;2.80;;;13.50;1.00;;;;;;4995957;28;20404;-82
2023/11/13 04:17:33;;;;;;;6.72;2.30;;;12.10;1.00;;;;;;5008501;28;20836;-85
2023/11/13 04:19:59;;;;;;;7.72;2.70;;;12.00;1.00;;;;;;5004637;28;20436;-84
2023/11/13 04:22:26;;;;;;;7.10;2.38;;;12.00;1.00;;;;;;5006892;28;20394;-84
2023/11/13 04:24:53;;;;;;;8.02;2.67;;;11.90;1.00;;;;;;5005333;28;20505;-84
2023/11/13 04:27:18;;;;;;;9.32;2.47;;;11.80;1.00;;;;;;5004361;28;20900;-85
2023/11/13 04:29:44;;;;;;;5.63;2.10;;;11.70;1.00;;;;;;5003682;28;20402;-84
2023/11/13 04:32:09;;;;;;;6.63;2.40;;;11.70;1.00;;;;;;5008910;28;20893;-84
2023/11/13 04:34:35;;;;;;;7.57;2.50;;;11.70;1.00;;;;;;5009218;28;20410;-85
2023/11/13 04:37:02;;;;;;;7.30;1.90;;;11.60;1.00;;;;;;5005710;28;20760;-83
2023/11/13 04:39:28;;;;;;;4.50;1.30;;;11.50;1.00;;;;;;5007549;28;20385;-82
2023/11/13 04:41:53;;;;;;;2.90;1.13;;;11.50;1.00;;;;;;5007326;28;20398;-84
2023/11/13 04:44:19;;;;;;;3.50;1.20;;;11.50;1.00;;;;;;4994805;28;20467;-82
2023/11/13 04:46:45;;;;;;;4.28;1.50;;;11.50;1.00;;;;;;4993293;28;20404;-80
2023/11/13 04:49:11;;;;;;;5.45;1.85;;;10.80;1.00;;;;;;4995467;28;20396;-81
2023/11/13 04:51:37;;;;;;;5.18;1.60;;;11.40;1.00;;;;;;5001400;28;20400;-82
2023/11/13 04:54:02;;;;;;;5.77;2.33;;;12.30;1.00;;;;;;4994990;28;20792;-84
2023/11/13 04:56:28;;;;;;;5.18;2.10;;;11.40;1.00;;;;;;4986799;28;20879;-84
2023/11/13 04:58:54;;;;;;;5.10;1.58;;;11.30;1.00;;;;;;4988807;28;20388;-84
2023/11/13 05:01:19;;;;;;;6.38;1.70;;;11.50;1.00;;;;;;4991752;28;20395;-84
2023/11/13 05:03:45;;;;;;;5.22;2.05;;;11.90;1.00;;;;;;4992938;28;20398;-82
2023/11/13 05:06:15;;;;;;;5.32;1.80;;;11.50;1.00;;;;;;4999814;28;20402;-83
2023/11/13 05:08:41;;;;;;;4.00;1.60;;;11.50;1.00;;;;;;4998476;28;20788;-83
2023/11/13 05:11:08;;;;;;;3.20;1.30;;;11.60;1.00;;;;;;4985063;28;20404;-83
2023/11/13 05:13:34;;;;;;;4.93;1.50;;;11.70;1.00;;;;;;4985336;28;20407;-84
2023/11/13 05:16:00;;;;;;;2.30;1.00;;;11.60;1.00;;;;;;4997122;28;20398;-81
2023/11/13 05:18:26;;;;;;;2.30;1.20;;;11.70;1.00;;;;;;4993756;28;20408;-82
2023/11/13 05:20:51;;;;;;;2.05;1.10;;;11.70;1.00;;;;;;4995950;28;20388;-81
2023/11/13 05:23:17;;;;;;;1.73;0.98;;;11.80;1.00;;;;;;5000666;28;20392;-81
2023/11/13 05:25:43;;;;;;;1.80;0.90;;;11.70;1.00;;;;;;5008731;28;20422;-83
2023/11/13 05:28:09;;;;;;;3.20;0.80;;;11.70;1.00;;;;;;5006081;28;20406;-81
2023/11/13 05:30:38;;;;;;;1.75;0.63;;;11.70;1.00;;;;;;5006655;28;20395;-82
2023/11/13 05:33:03;;;;;;;1.92;0.85;;;11.80;1.00;;;;;;5000287;28;20419;-83
2023/11/13 05:35:29;;;;;;;1.90;0.50;;;11.80;1.00;;;;;;5002645;28;20390;-85
2023/11/13 05:37:55;;;;;;;3.13;0.80;;;11.80;1.00;;;;;;5002561;28;20459;-82
2023/11/13 05:40:20;;;;;;;1.92;0.70;;;11.70;1.00;;;;;;5000399;28;20383;-82
2023/11/13 05:42:46;;;;;;;2.97;0.60;;;11.80;1.00;;;;;;4999799;28;20462;-82
2023/11/13 05:45:15;;;;;;;2.50;0.60;;;11.80;1.00;;;;;;4989062;28;20451;-81
2023/11/13 05:47:41;;;;;;;2.97;0.70;;;11.10;1.00;;;;;;4987074;28;20475;-83
2023/11/13 05:50:08;;;;;;;0.90;0.70;;;11.80;1.00;;;;;;4987325;28;20395;-84
2023/11/13 05:52:34;;;;;;;1.50;0.80;;;11.80;1.00;;;;;;4998132;28;20415;-83
2023/11/13 05:54:59;;;;;;;0.80;0.50;;;11.90;1.00;;;;;;5001798;28;20405;-84
2023/11/13 05:57:24;;;;;;;0.90;0.50;;;11.70;1.00;;;;;;5003688;28;20453;-85
2023/11/13 05:59:50;;;;;;;1.23;0.83;;;11.70;1.00;;;;;;5006454;28;20442;-84
2023/11/13 06:02:17;;;;;;;2.40;0.80;;;11.70;1.00;;;;;;5004895;28;20418;-85
2023/11/13 06:04:45;;;;;;;0.70;0.60;;;11.80;1.00;;;;;;4989898;28;20904;-85
2023/11/13 06:07:11;;;;;;;1.70;0.60;;;11.80;1.00;;;;;;4982453;28;20785;-84
2023/11/13 06:09:38;;;;;;;0.70;0.40;;;11.80;1.00;;;;;;4982327;28;20388;-84
2023/11/13 06:12:04;;;;;;;1.35;0.50;;;11.80;1.00;;;;;;4984897;28;20412;-83
2023/11/13 06:14:31;;;;;;;0.50;0.40;;;11.80;1.00;;;;;;4985596;28;20444;-84
2023/11/13 06:16:57;;;;;;;0.77;0.40;;;11.80;1.00;;;;;;4992594;28;20407;-84
2023/11/13 06:19:23;;;;;;;1.95;0.40;;;12.00;1.00;;;;;;4997368;28;20463;-84
2023/11/13 06:21:51;;;;;;;0.60;0.30;;;12.10;1.00;;;;;;5001540;28;20422;-84
2023/11/13 06:24:16;;;;;;;1.55;0.50;;;12.20;1.00;;;;;;4992732;28;20406;-81
2023/11/13 06:26:42;;;;;;;0.70;0.40;;;12.40;1.00;;;;;;4990398;28;20446;-84
2023/11/13 06:29:07;;;;;;;1.70;0.60;;;12.30;1.00;;;;;;4995928;28;20406;-82
2023/11/13 06:31:34;;;;;;;0.70;0.43;;;12.20;1.00;;;;;;5002096;28;20409;-82
2023/11/13 06:34:00;;;;;;;1.40;0.60;;;12.30;1.00;;;;;;4995835;28;20882;-82
2023/11/13 06:36:25;;;;;;;0.98;0.60;;;12.50;1.00;;;;;;4984402;28;20432;-82
2023/11/13 06:38:51;;;;;;;0.90;0.75;;;12.40;1.00;;;;;;4993100;28;20422;-82
2023/11/13 06:41:17;;;;;;;0.80;0.40;;;12.40;1.00;;;;;;4994926;28;20446;-82
2023/11/13 06:43:42;;;;;;;1.10;0.60;;;12.40;1.00;;;;;;4983468;28;20474;-83
2023/11/13 06:46:08;;;;;;;0.70;0.50;;;12.40;1.00;;;;;;4994755;28;20853;-83
2023/11/13 06:48:34;;;;;;;1.00;0.60;;;12.50;1.00;;;;;;5009610;28;20426;-83
2023/11/13 06:51:00;;;;;;;1.67;0.52;;;12.40;1.00;;;;;;5000662;28;20438;-81
2023/11/13 06:53:28;;;;;;;1.00;0.60;;;12.30;1.00;;;;;;4982245;28;20408;-81
2023/11/13 06:55:54;;;;;;;0.90;0.80;;;12.60;1.00;;;;;;4984953;28;20550;-83
2023/11/13 06:58:22;;;;;;;1.00;0.70;;;12.60;1.00;;;;;;4984727;28;20400;-84
2023/11/13 07:00:49;;;;;;;1.50;0.77;;;12.50;1.00;;;;;;4984970;28;20960;-80
2023/11/13 07:03:14;;;;;;;1.00;0.80;;;12.80;1.00;;;;;;4983403;28;20396;-82
2023/11/13 07:05:41;;;;;;;2.60;1.00;;;12.80;1.00;;;;;;4982338;28;20423;-83
2023/11/13 07:08:06;;;;;;;1.70;0.80;;;12.80;1.00;;;;;;4998611;28;20422;-81
2023/11/13 07:10:35;;;;;;;4.63;1.30;;;12.90;1.00;;;;;;4999512;28;20791;-81
2023/11/13 07:13:01;;;;;;;2.30;1.20;;;12.90;1.00;;;;;;4988304;28;20461;-82
2023/11/13 07:15:27;;;;;;;1.93;1.50;;;13.10;1.00;;;;;;4987080;28;20485;-82
2023/11/13 07:17:52;;;;;;;1.80;1.23;;;13.20;1.00;;;;;;4986169;28;20440;-85
2023/11/13 07:20:18;;;;;;;2.28;1.25;;;13.10;1.00;;;;;;4978308;28;20415;-83
2023/11/13 07:22:50;;;;;;;2.22;1.33;;;13.70;1.00;;;;;;4980570;28;20424;-83
2023/11/13 07:25:16;;;;;;;3.60;1.40;;;13.30;1.00;;;;;;4981952;28;20390;-84
2023/11/13 07:27:41;;;;;;;3.28;1.20;;;13.30;1.00;;;;;;4988842;28;20435;-83
2023/11/13 07:30:07;;;;;;;2.97;1.30;;;13.30;1.00;;;;;;4977301;28;20380;-82
2023/11/13 07:32:33;;;;;;;2.20;1.50;;;13.40;1.00;;;;;;4976818;28;20385;-82
2023/11/13 07:34:59;;;;;;;2.30;1.27;;;13.50;1.00;;;;;;4981100;28;20412;-83
2023/11/13 07:37:24;;;;;;;2.60;1.20;;;13.50;1.00;;;;;;4975175;28;20510;-84
2023/11/13 07:39:51;;;;;;;2.50;1.10;;;13.50;1.00;;;;;;4980061;28;20388;-83
2023/11/13 07:42:18;;;;;;;1.80;1.13;;;13.60;1.00;;;;;;4985501;28;20376;-81
2023/11/13 07:44:49;;;;;;;4.85;1.30;;;13.60;1.00;;;;;;4980882;28;20434;-82
2023/11/13 07:47:15;;;;;;;3.08;1.30;;;13.70;1.00;;;;;;4982395;28;20488;-80
2023/11/13 07:49:43;;;;;;;2.40;1.20;;;13.70;1.00;;;;;;4982647;28;20404;-82
2023/11/13 07:52:10;;;;;;;3.83;1.30;;;13.60;1.00;;;;;;4981181;28;20393;-83
2023/11/13 07:54:36;;;;;;;3.28;1.10;;;13.60;1.00;;;;;;4981235;28;20403;-83
2023/11/13 07:57:03;;;;;;;2.90;1.10;;;13.60;1.00;;;;;;4982809;28;20492;-81
2023/11/13 07:59:29;;;;;;;2.77;1.20;;;13.70;1.00;;;;;;4982164;28;20403;-83
2023/11/13 08:01:55;;;;;;;2.57;1.10;;;13.20;1.00;;;;;;4981695;28;20396;-83
2023/11/13 08:04:22;;;;;;;4.20;1.40;;;13.90;1.00;;;;;;4981750;28;20485;-83
2023/11/13 08:06:48;;;;;;;6.95;1.77;;;13.90;1.00;;;;;;4983446;28;20396;-82
2023/11/13 08:09:15;;;;;;;3.72;1.80;;;13.50;1.00;;;;;;4982861;28;20913;-83
2023/11/13 08:11:41;;;;;;;3.45;1.40;;;14.10;1.00;;;;;;4982289;28;20408;-83
2023/11/13 08:14:09;;;;;;;5.78;1.90;;;14.10;1.00;;;;;;4979892;28;20411;-83
2023/11/13 08:16:35;;;;;;;5.70;1.55;;;14.00;1.00;;;;;;4980669;28;20388;-82
2023/11/13 08:19:01;;;;;;;5.00;1.50;;;13.60;1.00;;;;;;4980878;28;20770;-84
2023/11/13 08:21:26;;;;;;;5.37;1.50;;;14.20;1.00;;;;;;4981215;28;20399;-85
2023/11/13 08:23:52;;;;;;;2.97;1.30;;;14.30;1.00;;;;;;4976629;28;20997;-83
2023/11/13 08:26:18;;;;;;;4.13;1.10;;;14.40;1.00;;;;;;4976843;28;20396;-83
2023/11/13 08:28:44;;;;;;;3.92;1.80;;;14.40;1.00;;;;;;4978908;28;20403;-84
2023/11/13 08:31:15;;;;;;;5.10;2.00;;;14.40;1.00;;;;;;4990672;28;20404;-83
2023/11/13 08:33:45;;;;;;;4.90;1.40;;;14.50;1.00;;;;;;4982838;28;20412;-83
2023/11/13 08:36:11;;;;;;;7.10;2.20;;;14.50;1.00;;;;;;4980292;28;20399;-83
2023/11/13 08:38:37;;;;;;;4.83;1.60;;;14.50;1.00;;;;;;4982324;28;20395;-84
2023/11/13 08:41:06;;;;;;;3.73;1.40;;;14.60;1.00;;;;;;4979685;28;20403;-82
2023/11/13 08:43:33;;;;;;;5.00;1.70;;;14.70;1.00;;;;;;4980043;28;20419;-82
2023/11/13 08:46:01;;;;;;;2.65;1.10;;;14.60;1.00;;;;;;4983728;28;20423;-82
2023/11/13 08:48:28;;;;;;;4.30;1.60;;;14.40;1.00;;;;;;4986010;28;20392;-82
2023/11/13 08:50:53;;;;;;;3.60;1.50;;;14.60;1.00;;;;;;4993479;28;20419;-82
2023/11/13 08:53:19;;;;;;;3.87;1.60;;;14.70;1.00;;;;;;4994313;28;20420;-81
2023/11/13 08:55:45;;;;;;;3.13;1.53;;;14.30;1.00;;;;;;4992359;28;20446;-83
2023/11/13 08:58:10;;;;;;;3.53;2.20;;;14.80;1.00;;;;;;4988093;28;20411;-80
2023/11/13 09:00:43;;;;;;;6.32;1.90;;;14.80;1.00;;;;;;4983374;28;20400;-85
2023/11/13 09:03:09;;;;;;;5.13;1.70;;;15.20;1.00;;;;;;4986189;28;20472;-80
2023/11/13 09:05:36;;;;;;;5.28;1.60;;;14.80;1.00;;;;;;4984119;28;20419;-80
2023/11/13 09:08:04;;;;;;;7.10;1.88;;;14.90;1.00;;;;;;4984214;28;20906;-82
2023/11/13 09:10:31;;;;;;;7.82;2.00;;;15.60;1.00;;;;;;4984486;28;20399;-82
2023/11/13 09:12:58;;;;;;;5.13;1.75;;;14.80;1.00;;;;;;4987425;28;20431;-81
2023/11/13 09:15:25;;;;;;;4.15;1.50;;;14.80;1.00;;;;;;4985945;28;20415;-82
2023/11/13 09:17:54;;;;;;;6.35;1.85;;;15.00;1.00;;;;;;4984811;28;20412;-84
2023/11/13 09:20:20;;;;;;;6.07;2.08;;;15.10;1.00;;;;;;4986016;28;20396;-83
2023/11/13 09:22:50;;;;;;;6.27;1.80;;;15.20;1.00;;;;;;4994884;28;20438;-80
2023/11/13 09:25:16;;;;;;;5.27;1.87;;;15.20;1.00;;;;;;4992623;28;20385;-84
2023/11/13 09:27:46;;;;;;;5.50;1.90;;;15.30;1.00;;;;;;4991957;28;20804;-81
2023/11/13 09:30:15;;;;;;;5.20;1.92;;;15.40;1.00;;;;;;4991254;28;20403;-85
2023/11/13 09:32:43;;;;;;;3.85;1.85;;;15.40;1.00;;;;;;4994777;28;20392;-80
2023/11/13 09:35:18;;;;;;;5.47;2.20;;;15.40;1.00;;;;;;4987752;28;20396;-82
2023/11/13 09:38:02;;;;;;;5.93;2.45;;;15.50;1.00;;;;;;4987884;28;20391;-81
2023/11/13 09:40:35;;;;;;;3.97;1.77;;;15.50;1.00;;;;;;4986961;28;20484;-81
2023/11/13 09:43:18;;;;;;;7.20;2.00;;;15.60;1.00;;;;;;4986666;28;20425;-82
2023/11/13 09:45:45;;;;;;;3.55;1.60;;;15.60;1.00;;;;;;4984273;28;20399;-84
2023/11/13 09:48:16;;;;;;;5.65;2.20;;;15.70;1.00;;;;;;4984595;28;20428;-84
2023/11/13 09:50:44;;;;;;;4.17;1.70;;;15.80;1.00;;;;;;4986989;28;20483;-80
2023/11/13 09:53:15;;;;;;;7.13;2.20;;;15.80;1.00;;;;;;4991615;28;20418;-80
2023/11/13 09:55:41;;;;;;;4.13;1.87;;;15.80;1.00;;;;;;4990727;28;20394;-81
2023/11/13 09:58:09;;;;;;;5.93;2.40;;;15.90;1.00;;;;;;4991252;28;20439;-82
2023/11/13 10:00:36;;;;;;;4.88;1.90;;;15.90;1.00;;;;;;4990803;28;20384;-82
2023/11/13 10:03:02;;;;;;;5.95;1.90;;;15.90;1.00;;;;;;4996796;28;20556;-80
2023/11/13 10:05:30;;;;;;;4.30;2.13;;;16.00;1.00;;;;;;4994790;28;20396;-80
2023/11/13 10:07:57;;;;;;;5.25;2.00;;;16.00;1.00;;;;;;4993255;28;20391;-81
2023/11/13 10:10:26;;;;;;;8.18;2.47;;;15.90;1.00;;;;;;4994698;28;20393;-80
2023/11/13 10:12:53;;;;;;;6.45;1.98;;;16.00;1.00;;;;;;4995117;28;20380;-83
2023/11/13 10:15:27;;;;;;;5.90;2.13;;;16.00;1.00;;;;;;4992662;28;20423;-83
2023/11/13 10:17:56;;;;;;;7.63;2.20;;;16.00;1.00;;;;;;4988277;28;20443;-86
2023/11/13 10:20:22;;;;;;;4.88;2.15;;;16.00;1.00;;;;;;4982593;28;20472;-80
2023/11/13 10:23:08;;;;;;;7.22;2.20;;;16.10;1.00;;;;;;4985996;28;20475;-81
2023/11/13 10:25:45;;;;;;;6.90;2.65;;;16.10;1.00;;;;;;4983241;28;20396;-82
2023/11/13 10:28:12;;;;;;;4.63;2.13;;;16.10;1.00;;;;;;4981847;28;20424;-82
2023/11/13 10:31:12;;;;;;;6.33;1.70;;;16.20;1.00;;;;;;4983480;28;20502;-80
2023/11/13 10:33:39;;;;;;;4.17;1.63;;;16.20;1.00;;;;;;4971868;28;20479;-82
2023/11/13 10:36:13;;;;;;;8.38;1.90;;;16.20;1.00;;;;;;4984055;28;20833;-81
2023/11/13 10:38:47;;;;;;;6.18;2.30;;;16.20;1.00;;;;;;4980611;28;20380;-83
2023/11/13 10:41:19;;;;;;;2.90;1.70;;;16.10;1.00;;;;;;4983813;28;20451;-82
2023/11/13 10:43:45;;;;;;;5.53;1.90;;;16.20;1.00;;;;;;4990032;28;20409;-80
2023/11/13 10:46:28;;;;;;;5.88;2.03;;;16.10;1.00;;;;;;4992209;28;20380;-84
2023/11/13 10:48:56;;;;;;;4.10;1.75;;;16.20;1.00;;;;;;4991859;28;20430;-85
2023/11/13 10:51:25;;;;;;;3.50;1.73;;;16.30;1.00;;;;;;4991903;28;20702;-83
2023/11/13 10:53:53;;;;;;;3.83;1.65;;;16.20;1.00;;;;;;4992787;28;20414;-80
2023/11/13 10:56:19;;;;;;;4.93;1.90;;;16.20;1.00;;;;;;4993197;28;20392;-79
2023/11/13 10:58:44;;;;;;;3.90;1.60;;;16.20;1.00;;;;;;4994231;28;20840;-81
2023/11/13 11:01:13;;;;;;;3.53;1.48;;;16.20;1.00;;;;;;4991161;28;20403;-81
2023/11/13 11:03:43;;;;;;;3.30;1.80;;;16.20;1.00;;;;;;4994322;28;20403;-80
2023/11/13 11:06:14;;;;;;;4.68;1.65;;;16.30;1.00;;;;;;4994094;28;20406;-80
2023/11/13 11:08:43;;;;;;;2.28;1.38;;;16.20;1.00;;;;;;4993829;28;20384;-79
2023/11/13 11:11:12;;;;;;;4.95;1.90;;;16.20;1.00;;;;;;4992933;28;20404;-80
2023/11/13 11:13:42;;;;;;;4.90;1.83;;;16.20;1.00;;;;;;4993492;28;20487;-80
2023/11/13 11:16:27;;;;;;;5.20;1.60;;;16.20;1.00;;;;;;4991679;28;20388;-81
2023/11/13 11:19:02;;;;;;;4.30;1.60;;;16.20;1.00;;;;;;4992588;28;20393;-80
2023/11/13 11:21:46;;;;;;;3.90;1.60;;;16.20;1.00;;;;;;4994743;28;20403;-80
2023/11/13 11:24:26;;;;;;;4.15;1.80;;;16.20;1.00;;;;;;4993858;28;20398;-79
2023/11/13 11:26:54;;;;;;;7.50;2.00;;;16.20;1.00;;;;;;4995561;28;20396;-81
2023/11/13 11:29:43;;;;;;;3.92;1.27;;;16.20;1.00;;;;;;4995641;28;20396;-79
2023/11/13 11:32:19;;;;;;;4.38;1.50;;;16.30;1.00;;;;;;4993031;28;20376;-80
2023/11/13 11:35:02;;;;;;;7.90;1.90;;;16.30;1.00;;;;;;4985935;28;20416;-81
2023/11/13 11:37:28;;;;;;;2.92;1.95;;;16.20;1.00;;;;;;4986259;28;20380;-81
2023/11/13 11:40:03;;;;;;;3.72;1.50;;;16.00;1.00;;;;;;4990258;28;20407;-79
2023/11/13 11:42:31;;;;;;;3.95;1.55;;;15.80;1.00;;;;;;4988795;28;20416;-80
2023/11/13 11:44:59;;;;;;;4.85;1.85;;;15.70;1.00;;;;;;4989689;28;20424;-84
2023/11/13 11:47:26;;;;;;;4.70;1.80;;;15.70;1.00;;;;;;4988487;28;20400;-82
2023/11/13 11:49:52;;;;;;;4.23;1.80;;;15.60;1.00;;;;;;4988491;28;20764;-80
2023/11/13 11:52:38;;;;;;;4.32;1.90;;;15.60;1.00;;;;;;4986443;28;20422;-82
2023/11/13 11:55:04;;;;;;;5.70;2.08;;;15.40;1.00;;;;;;4985419;28;20412;-82
2023/11/13 11:57:30;;;;;;;6.72;2.30;;;15.20;1.00;;;;;;4992773;28;20391;-80
2023/11/13 12:00:00;;;;;;;3.00;1.80;;;15.20;1.00;;;;;;4995204;28;20440;-82
2023/11/13 12:02:28;;;;;;;4.53;1.75;;;14.50;1.00;;;;;;4994993;28;20389;-83
2023/11/13 12:04:54;;;;;;;4.60;1.90;;;15.20;1.00;;;;;;4986575;28;20404;-81
2023/11/13 12:07:20;;;;;;;3.50;1.80;;;15.00;1.00;;;;;;4988367;28;20480;-79
2023/11/13 12:09:46;;;;;;;4.18;1.50;;;15.10;1.00;;;;;;4988093;28;20400;-86
2023/11/13 12:12:12;;;;;;;3.80;1.50;;;16.20;1.00;;;;;;4984877;28;20454;-83
2023/11/13 12:14:38;;;;;;;4.78;2.20;;;14.90;1.00;;;;;;4971359;28;20481;-79
2023/11/13 12:17:07;;;;;;;3.53;1.80;;;15.20;1.00;;;;;;4962504;29;20436;-82
2023/11/13 12:19:32;;;;;;;4.07;1.80;;;15.20;1.00;;;;;;4965681;28;20397;-79
2023/11/13 12:21:58;;;;;;;3.20;1.60;;;15.20;1.00;;;;;;4968032;29;20400;-80
2023/11/13 12:24:25;;;;;;;2.70;1.40;;;15.30;1.00;;;;;;4985648;28;20400;-83
2023/11/13 12:26:56;;;;;;;3.75;1.80;;;15.40;1.00;;;;;;5003533;28;20915;-79
2023/11/13 12:29:22;;;;;;;4.88;1.60;;;15.40;1.00;;;;;;5008373;28;20821;-82
2023/11/13 12:31:52;;;;;;;3.70;1.90;;;15.30;1.00;;;;;;5006009;28;20394;-79
2023/11/13 12:34:19;;;;;;;4.30;1.65;;;15.10;1.00;;;;;;5007911;28;20949;-78
2023/11/13 12:36:46;;;;;;;4.50;1.83;;;15.10;1.00;;;;;;5005726;28;20462;-79
2023/11/13 12:39:19;;;;;;;3.78;1.80;;;14.90;1.00;;;;;;4986466;28;20396;-81
2023/11/13 12:41:46;;;;;;;4.82;1.90;;;15.00;1.00;;;;;;4987139;28;20435;-81
2023/11/13 12:44:13;;;;;;;4.15;1.52;;;14.90;1.00;;;;;;4992573;28;20410;-84
2023/11/13 12:46:49;;;;;;;4.75;1.70;;;14.50;1.00;;;;;;5005752;28;20390;-79
2023/11/13 12:49:16;;;;;;;3.40;1.60;;;15.10;1.00;;;;;;5006687;28;20481;-80
2023/11/13 12:51:48;;;;;;;4.38;1.30;;;14.90;1.00;;;;;;4992564;28;20396;-81
2023/11/13 12:54:15;;;;;;;6.27;1.60;;;15.10;1.00;;;;;;4986100;28;20419;-80
2023/11/13 12:56:46;;;;;;;5.70;1.40;;;15.10;1.00;;;;;;5000361;28;20886;-79